Home > Products > Valid Products > MTR

000
SAUS45 KMSO 030254
MTRP69
METAR KP69 030252Z AUTO 00000KT 02/01 A2992 RMK AO1 SLP156 P0004
60006 T00170006 51023





000
SAUS45 KMSO 030153
MTRP69
METAR KP69 030152Z AUTO 13004KT 03/01 A2990 RMK AO1 SLP150 P0002
T00280006





000
SAUS45 KMSO 030153
MTRP69
METAR KP69 030152Z AUTO 13004KT 03/01 A2990 RMK AO1 SLP150 P0002
T00280006





000
SAUS45 KMSO 030054
MTRP69
METAR KP69 030052Z AUTO 15007KT 05/M02 A2988 RMK AO1 SLP139
T00501017





000
SAUS45 KMSO 030054
MTRP69
METAR KP69 030052Z AUTO 15007KT 05/M02 A2988 RMK AO1 SLP139
T00501017





000
SAUS45 KMSO 022354
MTRP69
METAR KP69 022352Z AUTO VRB04KT 08/M05 A2985 RMK AO1 SLP124
T00781050 10094 20022 55002





000
SAUS45 KMSO 022354
MTRP69
METAR KP69 022352Z AUTO VRB04KT 08/M05 A2985 RMK AO1 SLP124
T00781050 10094 20022 55002





000
SAUS45 KMSO 022254
MTRP69
METAR KP69 022252Z AUTO VRB03KT 08/M06 A2983 RMK AO1 SLP119
T00831061





000
SAUS45 KMSO 022254
MTRP69
METAR KP69 022252Z AUTO VRB03KT 08/M06 A2983 RMK AO1 SLP119
T00831061





000
SAUS45 KMSO 022154
MTRP69
METAR KP69 022152Z AUTO VRB04KT 09/M06 A2983 RMK AO1 SLP117
T00891061





000
SAUS45 KMSO 022154
MTRP69
METAR KP69 022152Z AUTO VRB04KT 09/M06 A2983 RMK AO1 SLP117
T00891061





000
SAUS45 KMSO 022054
MTRP69
METAR KP69 022052Z AUTO 00000KT 07/M09 A2985 RMK AO1 SLP126
T00721089 58027





000
SAUS45 KMSO 021954
MTRP69
METAR KP69 021952Z AUTO VRB03KT 06/M08 A2989 RMK AO1 SLP139
T00611083





000
SAUS45 KMSO 021854
MTRP69
METAR KP69 021852Z AUTO 00000KT 04/M08 A2992 RMK AO1 SLP152
T00391078





000
SAUS45 KMSO 021854
MTRP69
METAR KP69 021852Z AUTO 00000KT 04/M08 A2992 RMK AO1 SLP152
T00391078





000
SAUS45 KMSO 021754
MTRP69
METAR KP69 021752Z AUTO VRB03KT 02/M07 A2994 RMK AO1 SLP160
T00171072 10017 21044 58012





000
SAUS45 KMSO 021754
MTRP69
METAR KP69 021752Z AUTO VRB03KT 02/M07 A2994 RMK AO1 SLP160
T00171072 10017 21044 58012





000
SAUS45 KMSO 021653
MTRP69
METAR KP69 021652Z AUTO 34003KT M01/M07 A2996 RMK AO1 SLP170
T10061067





000
SAUS45 KMSO 021653
MTRP69
METAR KP69 021652Z AUTO 34003KT M01/M07 A2996 RMK AO1 SLP170
T10061067





000
SAUS45 KMSO 021553
MTRP69
METAR KP69 021552Z AUTO 35004KT M03/M07 A2998 RMK AO1 SLP177
T10281067





000
SAUS45 KMSO 021453
MTRP69
METAR KP69 021452Z AUTO 34003KT M04/M07 A2997 RMK AO1 SLP175
T10391072 58003





000
SAUS45 KMSO 021353
MTRP69
METAR KP69 021352Z AUTO VRB03KT M04/M07 A2998 RMK AO1 SLP177
T10391072





000
SAUS45 KMSO 021353
MTRP69
METAR KP69 021352Z AUTO VRB03KT M04/M07 A2998 RMK AO1 SLP177
T10391072





000
SAUS45 KMSO 021253
MTRP69
METAR KP69 021252Z AUTO 32003KT M04/M07 A2998 RMK AO1 SLP176
T10391067





000
SAUS45 KMSO 021157 COR
MTRP69
METAR KP69 021152Z AUTO 33003KT M03/M07 A2998 RMK AO1 SLP174
T10331067 11017 21033 57012





000
SAUS45 KMSO 021154
MTRP69
METAR KP69 021152Z AUTO 33003KT M03/M07 A2998 RMK AO1 SLP174
T10331067 11017 21033 57012





000
SAUS45 KMSO 021054
MTRP69
METAR KP69 021052Z AUTO 00000KT M03/M07 A3000 RMK AO1 SLP173
T10331067





000
SAUS45 KMSO 021054
MTRP69
METAR KP69 021052Z AUTO 00000KT M03/M07 A3000 RMK AO1 SLP173
T10331067





000
SAUS45 KMSO 020953
MTRP69
METAR KP69 020952Z AUTO 00000KT M03/M07 A3001 RMK AO1 SLP177
T10281067





000
SAUS45 KMSO 020953
MTRP69
METAR KP69 020952Z AUTO 00000KT M03/M07 A3001 RMK AO1 SLP177
T10281067





000
SAUS45 KMSO 020853
MTRP69
METAR KP69 020852Z AUTO 00000KT M03/M06 A3002 RMK AO1 SLP179
T10281061 55004





000
SAUS45 KMSO 020753
MTRP69
METAR KP69 020752Z AUTO 34003KT M02/M06 A3001 RMK AO1 SLP179
T10221061 401171050





000
SAUS45 KMSO 020654
MTRP69
METAR KP69 020652Z AUTO 00000KT M02/M06 A3003 RMK AO1 SLP186
T10171061





000
SAUS45 KMSO 020654
MTRP69
METAR KP69 020652Z AUTO 00000KT M02/M06 A3003 RMK AO1 SLP186
T10171061





000
SAUS45 KMSO 020554
MTRP69
METAR KP69 020552Z AUTO 34003KT M02/M06 A3003 RMK AO1 SLP192
T10171061 10050 21022 50000





000
SAUS45 KMSO 020454
MTRP69
METAR KP69 020452Z AUTO 35003KT M01/M06 A3004 RMK AO1 SLP199
T10111056





000
SAUS45 KMSO 020454
MTRP69
METAR KP69 020452Z AUTO 35003KT M01/M06 A3004 RMK AO1 SLP199
T10111056





000
SAUS45 KMSO 020354
MTRP69
METAR KP69 020352Z AUTO 00000KT M01/M06 A3003 RMK AO1 SLP197
T10061056





000
SAUS45 KMSO 020254
MTRP69
METAR KP69 020252Z AUTO 35003KT 01/M05 A3003 RMK AO1 SLP197
T00111050 55005





000
SAUS45 KMSO 020154
MTRP69
METAR KP69 020152Z AUTO 00000KT 02/M04 A3003 RMK AO1 SLP195
T00171039





000
SAUS45 KMSO 020154
MTRP69
METAR KP69 020152Z AUTO 00000KT 02/M04 A3003 RMK AO1 SLP195
T00171039





000
SAUS45 KMSO 020054
MTRP69
METAR KP69 020052Z AUTO 00000KT 04/M04 A3003 RMK AO1 SLP192
T00391039





000
SAUS45 KMSO 020054
MTRP69
METAR KP69 020052Z AUTO 00000KT 04/M04 A3003 RMK AO1 SLP192
T00391039





000
SAUS45 KMSO 012354
MTRP69
METAR KP69 012352Z AUTO 00000KT 05/M06 A3005 RMK AO1 SLP197
T00501061 10117 20028 56034





000
SAUS45 KMSO 012354
MTRP69
METAR KP69 012352Z AUTO 00000KT 05/M06 A3005 RMK AO1 SLP197
T00501061 10117 20028 56034





000
SAUS45 KMSO 012254
MTRP69
METAR KP69 012252Z AUTO 00000KT 10/M06 A3007 RMK AO1 SLP199
T01001061





000
SAUS45 KMSO 012254
MTRP69
METAR KP69 012252Z AUTO 00000KT 10/M06 A3007 RMK AO1 SLP199
T01001061





000
SAUS45 KMSO 012154
MTRP69
METAR KP69 012152Z AUTO 17004KT 11/M11 A3011 RMK AO1 SLP211
T01061111





000
SAUS45 KMSO 012154
MTRP69
METAR KP69 012152Z AUTO 17004KT 11/M11 A3011 RMK AO1 SLP211
T01061111





000
SAUS45 KMSO 012054
MTRP69
METAR KP69 012052Z AUTO 00000KT 11/M12 A3015 RMK AO1 PRESFR SLP224
T01111117 58047





000
SAUS45 KMSO 011953
MTRP69
METAR KP69 011952Z AUTO 00000KT 08/M13 A3021 RMK AO1 SLP248
T00831128





000
SAUS45 KMSO 011854
MTRP69
METAR KP69 011852Z AUTO 35003KT 06/M12 A3026 RMK AO1 SLP268
T00611117





000
SAUS45 KMSO 011854
MTRP69
METAR KP69 011852Z AUTO 35003KT 06/M12 A3026 RMK AO1 SLP268
T00611117





000
SAUS45 KMSO 011754
MTRP69
METAR KP69 011752Z AUTO 01004KT 02/M12 A3030 RMK AO1 SLP282
T00221122 10028 21050 58014





000
SAUS45 KMSO 011754
MTRP69
METAR KP69 011752Z AUTO 01004KT 02/M12 A3030 RMK AO1 SLP282
T00221122 10028 21050 58014





000
SAUS45 KMSO 011654
MTRP69
METAR KP69 011652Z AUTO 00000KT M01/M08 A3032 RMK AO1 SLP294
T10111078





000
SAUS45 KMSO 011654
MTRP69
METAR KP69 011652Z AUTO 00000KT M01/M08 A3032 RMK AO1 SLP294
T10111078





000
SAUS45 KMSO 011554
MTRP69
METAR KP69 011552Z AUTO 35004KT M04/M08 A3035 RMK AO1 SLP306
T10441078





000
SAUS45 KMSO 011454
MTRP69
METAR KP69 011452Z AUTO 33005KT M04/M08 A3034 RMK AO1 SLP302
T10441078 51005





000
SAUS45 KMSO 011454
MTRP69
METAR KP69 011452Z AUTO 33005KT M04/M08 A3034 RMK AO1 SLP302
T10441078 51005





000
SAUS45 KMSO 011353
MTRP69
METAR KP69 011352Z AUTO 36004KT M04/M07 A3034 RMK AO1 SLP299
T10441072





000
SAUS45 KMSO 011254
MTRP69
METAR KP69 011252Z AUTO 32004KT M04/M07 A3033 RMK AO1 SLP294
T10441072





000
SAUS45 KMSO 011254
MTRP69
METAR KP69 011252Z AUTO 32004KT M04/M07 A3033 RMK AO1 SLP294
T10441072





000
SAUS45 KMSO 011153
MTRP69
METAR KP69 011152Z AUTO 34004KT M04/M07 A3032 RMK AO1 SLP290
T10391072 11017 21039 52007





000
SAUS45 KMSO 011053
MTRP69
METAR KP69 011052Z AUTO 32003KT M03/M07 A3031 RMK AO1 SLP279
T10331067





000
SAUS45 KMSO 010954
MTRP69
METAR KP69 010952Z AUTO 34003KT M03/M07 A3031 RMK AO1 SLP278
T10331067





000
SAUS45 KMSO 010954
MTRP69
METAR KP69 010952Z AUTO 34003KT M03/M07 A3031 RMK AO1 SLP278
T10331067





000
SAUS45 KMSO 010853
MTRP69
METAR KP69 010852Z AUTO 34003KT M03/M07 A3030 RMK AO1 SLP277
T10281067 51023





000
SAUS45 KMSO 010853
MTRP69
METAR KP69 010852Z AUTO 34003KT M03/M07 A3030 RMK AO1 SLP277
T10281067 51023





000
SAUS45 KMSO 010754
MTRP69
METAR KP69 010752Z AUTO 00000KT M03/M07 A3028 RMK AO1 SLP269
T10331067 401221033





000
SAUS45 KMSO 010754
MTRP69
METAR KP69 010752Z AUTO 00000KT M03/M07 A3028 RMK AO1 SLP269
T10331067 401221033





000
SAUS45 KMSO 010654
MTRP69
METAR KP69 010652Z AUTO 00000KT M03/M06 A3026 RMK AO1 SLP265
T10281061





000
SAUS45 KMSO 010654
MTRP69
METAR KP69 010652Z AUTO 00000KT M03/M06 A3026 RMK AO1 SLP265
T10281061





000
SAUS45 KMSO 010554
MTRP69
METAR KP69 010552Z AUTO 00000KT M02/M06 A3023 RMK AO1 SLP256
T10171061 10061 21022 51037





000
SAUS45 KMSO 010554
MTRP69
METAR KP69 010552Z AUTO 00000KT M02/M06 A3023 RMK AO1 SLP256
T10171061 10061 21022 51037





000
SAUS45 KMSO 010453
MTRP69
METAR KP69 010452Z AUTO 00000KT M02/M06 A3020 RMK AO1 SLP247
T10171061





000
SAUS45 KMSO 010453
MTRP69
METAR KP69 010452Z AUTO 00000KT M02/M06 A3020 RMK AO1 SLP247
T10171061





000
SAUS45 KMSO 010354
MTRP69
METAR KP69 010352Z AUTO 00000KT M01/M06 A3016 RMK AO1 SLP235
T10061056





000
SAUS45 KMSO 010354
MTRP69
METAR KP69 010352Z AUTO 00000KT M01/M06 A3016 RMK AO1 SLP235
T10061056





000
SAUS45 KMSO 010254
MTRP69
METAR KP69 010252Z AUTO 00000KT 01/M06 A3012 RMK AO1 SLP220
T00061056 53029





000
SAUS45 KMSO 010254
MTRP69
METAR KP69 010252Z AUTO 00000KT 01/M06 A3012 RMK AO1 SLP220
T00061056 53029





000
SAUS45 KMSO 010154
MTRP69
METAR KP69 010152Z AUTO 00000KT 02/M04 A3009 RMK AO1 SLP207
T00171039





000
SAUS45 KMSO 010054
MTRP69
METAR KP69 010052Z AUTO 00000KT 04/M05 A3005 RMK AO1 SLP192
T00391050





000
SAUS45 KMSO 010054
MTRP69
METAR KP69 010052Z AUTO 00000KT 04/M05 A3005 RMK AO1 SLP192
T00391050





000
SAUS45 KMSO 282354
MTRP69
METAR KP69 282352Z AUTO 00000KT 06/M06 A3003 RMK AO1 SLP180
T00611061 10122 20056 53003





000
SAUS45 KMSO 282354
MTRP69
METAR KP69 282352Z AUTO 00000KT 06/M06 A3003 RMK AO1 SLP180
T00611061 10122 20056 53003





000
SAUS45 KMSO 282254
MTRP69
METAR KP69 282252Z AUTO 00000KT 12/M11 A3001 RMK AO1 SLP168
T01221106





000
SAUS45 KMSO 282254
MTRP69
METAR KP69 282252Z AUTO 00000KT 12/M11 A3001 RMK AO1 SLP168
T01221106





000
SAUS45 KMSO 282154
MTRP69
METAR KP69 282152Z AUTO 35004KT 12/M10 A3000 RMK AO1 SLP166
T01171100





000
SAUS45 KMSO 282053
MTRP69
METAR KP69 282052Z AUTO 34003KT 10/M11 A3002 RMK AO1 SLP171
T01001106 58006





000
SAUS45 KMSO 282053
MTRP69
METAR KP69 282052Z AUTO 34003KT 10/M11 A3002 RMK AO1 SLP171
T01001106 58006





000
SAUS45 KMSO 281954
MTRP69
METAR KP69 281952Z AUTO VRB05KT 09/M11 A3004 RMK AO1 SLP177
T00941106





000
SAUS45 KMSO 281954
MTRP69
METAR KP69 281952Z AUTO VRB05KT 09/M11 A3004 RMK AO1 SLP177
T00941106





000
SAUS45 KMSO 281854
MTRP69
METAR KP69 281852Z AUTO 34009G14KT 07/M11 A3005 RMK AO1 SLP186
T00721111





000
SAUS45 KMSO 281854
MTRP69
METAR KP69 281852Z AUTO 34009G14KT 07/M11 A3005 RMK AO1 SLP186
T00721111





000
SAUS45 KMSO 281754
MTRP69
METAR KP69 281752Z AUTO VRB04KT 06/M12 A3003 RMK AO1 SLP183
T00561117 10056 20017 51015





000
SAUS45 KMSO 281754
MTRP69
METAR KP69 281752Z AUTO VRB04KT 06/M12 A3003 RMK AO1 SLP183
T00561117 10056 20017 51015





000
SAUS45 KMSO 281654
MTRP69
METAR KP69 281652Z AUTO VRB05KT 04/M12 A3002 RMK AO1 SLP182
T00391117





000
SAUS45 KMSO 281654
MTRP69
METAR KP69 281652Z AUTO VRB05KT 04/M12 A3002 RMK AO1 SLP182
T00391117





000
SAUS45 KMSO 281554
MTRP69
METAR KP69 281552Z AUTO VRB05KT 02/M12 A3001 RMK AO1 SLP180
T00171117





000
SAUS45 KMSO 281554
MTRP69
METAR KP69 281552Z AUTO VRB05KT 02/M12 A3001 RMK AO1 SLP180
T00171117





000
SAUS45 KMSO 281454
MTRP69
METAR KP69 281452Z AUTO 35007KT 02/M11 A2999 RMK AO1 SLP172
T00171111 51027





000
SAUS45 KMSO 281454
MTRP69
METAR KP69 281452Z AUTO 35007KT 02/M11 A2999 RMK AO1 SLP172
T00171111 51027





000
SAUS45 KMSO 281353
MTRP69
METAR KP69 281352Z AUTO VRB06KT 02/M11 A2996 RMK AO1 SLP161
T00171106





000
SAUS45 KMSO 281353
MTRP69
METAR KP69 281352Z AUTO VRB06KT 02/M11 A2996 RMK AO1 SLP161
T00171106





000
SAUS45 KMSO 281254
MTRP69
METAR KP69 281252Z AUTO VRB06G20KT 03/M11 A2994 RMK AO1 SLP149
T00281111





000
SAUS45 KMSO 281254
MTRP69
METAR KP69 281252Z AUTO VRB06G20KT 03/M11 A2994 RMK AO1 SLP149
T00281111





000
SAUS45 KMSO 281154
MTRP69
METAR KP69 281152Z AUTO VRB06KT 03/M11 A2990 RMK AO1 SLP133
T00331106 10056 20028 53018





000
SAUS45 KMSO 281154
MTRP69
METAR KP69 281152Z AUTO VRB06KT 03/M11 A2990 RMK AO1 SLP133
T00331106 10056 20028 53018





000
SAUS45 KMSO 281054
MTRP69
METAR KP69 281052Z AUTO 32007KT 04/M09 A2988 RMK AO1 SLP124
T00391094





000
SAUS45 KMSO 281054
MTRP69
METAR KP69 281052Z AUTO 32007KT 04/M09 A2988 RMK AO1 SLP124
T00391094





000
SAUS45 KMSO 280954
MTRP69
METAR KP69 280952Z AUTO 33008KT 280V360 04/M09 A2987 RMK AO1 SLP121
T00441094





000
SAUS45 KMSO 280954
MTRP69
METAR KP69 280952Z AUTO 33008KT 280V360 04/M09 A2987 RMK AO1 SLP121
T00441094





000
SAUS45 KMSO 280853
MTRP69
METAR KP69 280852Z AUTO VRB06KT 05/M09 A2985 RMK AO1 SLP113
T00501089 51019





000
SAUS45 KMSO 280754
MTRP69
METAR KP69 280752Z AUTO 36005KT 06/M08 A2983 RMK AO1 SLP106
T00561083 401390000





000
SAUS45 KMSO 280654
MTRP69
METAR KP69 280652Z AUTO 36003KT 05/M07 A2982 RMK AO1 SLP103
T00501067





000
SAUS45 KMSO 280654
MTRP69
METAR KP69 280652Z AUTO 36003KT 05/M07 A2982 RMK AO1 SLP103
T00501067





000
SAUS45 KMSO 280554
MTRP69
METAR KP69 280552Z AUTO VRB03KT 04/M02 A2979 RMK AO1 SLP098
T00391017 10106 20033 51014





000
SAUS45 KMSO 280554
MTRP69
METAR KP69 280552Z AUTO VRB03KT 04/M02 A2979 RMK AO1 SLP098
T00391017 10106 20033 51014





000
SAUS45 KMSO 280453
MTRP69
METAR KP69 280452Z AUTO VRB04KT 04/M01 A2978 RMK AO1 SLP098
T00391006





000
SAUS45 KMSO 280453
MTRP69
METAR KP69 280452Z AUTO VRB04KT 04/M01 A2978 RMK AO1 SLP098
T00391006





000
SAUS45 KMSO 280353
MTRP69
METAR KP69 280352Z AUTO 00000KT 03/M01 A2977 RMK AO1 SLP096
T00331006





000
SAUS45 KMSO 280353
MTRP69
METAR KP69 280352Z AUTO 00000KT 03/M01 A2977 RMK AO1 SLP096
T00331006





    US Dept of Commerce
    National Oceanic and Atmospheric Administration
    National Weather Service
    1325 East West Highway
    Silver Spring, MD 20910
    Page Author: NWS Internet Services Team
Disclaimer
Information Quality
Credits
Glossary
Privacy Policy
Freedom of Information Act (FOIA)
About Us
Career Opportunities